sensor_id;sensor_type;location;lat;lon;timestamp;temperature;humidity
20998;DHT22;10657;51.276;6.390;2024-03-23T00:52:12;7.80;99.90
20998;DHT22;10657;51.276;6.390;2024-03-23T00:54:38;7.60;99.90
20998;DHT22;10657;51.276;6.390;2024-03-23T00:57:04;7.60;99.90
20998;DHT22;10657;51.276;6.390;2024-03-23T00:59:29;7.50;99.90
20998;DHT22;10657;51.276;6.390;2024-03-23T01:01:59;7.40;99.90
20998;DHT22;10657;51.276;6.390;2024-03-23T01:04:25;7.50;99.90
20998;DHT22;10657;51.276;6.390;2024-03-23T01:06:51;7.50;99.90
20998;DHT22;10657;51.276;6.390;2024-03-23T01:09:16;7.50;99.90
20998;DHT22;10657;51.276;6.390;2024-03-23T01:11:42;7.60;99.90
20998;DHT22;10657;51.276;6.390;2024-03-23T01:14:11;7.70;99.90
20998;DHT22;10657;51.276;6.390;2024-03-23T01:16:37;7.80;99.90
20998;DHT22;10657;51.276;6.390;2024-03-23T01:19:02;7.90;99.90
20998;DHT22;10657;51.276;6.390;2024-03-23T01:21:28;8.10;99.90
20998;DHT22;10657;51.276;6.390;2024-03-23T01:23:54;8.00;99.90
20998;DHT22;10657;51.276;6.390;2024-03-23T01:26:20;8.00;99.90
20998;DHT22;10657;51.276;6.390;2024-03-23T01:28:46;8.10;99.90
20998;DHT22;10657;51.276;6.390;2024-03-23T01:31:11;8.00;99.90
20998;DHT22;10657;51.276;6.390;2024-03-23T01:33:37;8.10;99.90
20998;DHT22;10657;51.276;6.390;2024-03-23T01:36:03;8.10;99.90
20998;DHT22;10657;51.276;6.390;2024-03-23T01:38:29;8.10;99.90
20998;DHT22;10657;51.276;6.390;2024-03-23T01:41:01;8.20;99.90
20998;DHT22;10657;51.276;6.390;2024-03-23T01:43:26;8.20;99.90
20998;DHT22;10657;51.276;6.390;2024-03-23T01:45:52;8.10;99.90
20998;DHT22;10657;51.276;6.390;2024-03-23T01:48:21;8.20;99.90
20998;DHT22;10657;51.276;6.390;2024-03-23T01:50:47;8.30;99.90
20998;DHT22;10657;51.276;6.390;2024-03-23T01:53:14;8.40;99.90
20998;DHT22;10657;51.276;6.390;2024-03-23T01:55:43;8.40;99.90
20998;DHT22;10657;51.276;6.390;2024-03-23T01:58:09;8.30;99.90
20998;DHT22;10657;51.276;6.390;2024-03-23T02:00:35;8.20;99.90
20998;DHT22;10657;51.276;6.390;2024-03-23T02:03:00;8.30;99.90
20998;DHT22;10657;51.276;6.390;2024-03-23T02:05:26;8.20;99.90
20998;DHT22;10657;51.276;6.390;2024-03-23T02:07:53;8.20;99.90
20998;DHT22;10657;51.276;6.390;2024-03-23T02:10:18;8.20;99.90
20998;DHT22;10657;51.276;6.390;2024-03-23T02:12:44;8.30;99.90
20998;DHT22;10657;51.276;6.390;2024-03-23T02:15:10;8.30;99.90
20998;DHT22;10657;51.276;6.390;2024-03-23T02:17:36;8.30;99.90
20998;DHT22;10657;51.276;6.390;2024-03-23T02:20:03;8.20;99.90
20998;DHT22;10657;51.276;6.390;2024-03-23T02:22:38;8.10;99.90
20998;DHT22;10657;51.276;6.390;2024-03-23T02:25:05;8.20;99.90
20998;DHT22;10657;51.276;6.390;2024-03-23T02:27:31;8.30;99.90
20998;DHT22;10657;51.276;6.390;2024-03-23T02:29:57;8.10;99.90
20998;DHT22;10657;51.276;6.390;2024-03-23T02:32:23;8.00;99.90
20998;DHT22;10657;51.276;6.390;2024-03-23T02:34:49;8.10;99.90
20998;DHT22;10657;51.276;6.390;2024-03-23T02:37:15;8.10;99.90
20998;DHT22;10657;51.276;6.390;2024-03-23T02:39:43;8.20;99.90
20998;DHT22;10657;51.276;6.390;2024-03-23T02:42:09;7.90;99.90
20998;DHT22;10657;51.276;6.390;2024-03-23T02:44:35;7.90;99.90
20998;DHT22;10657;51.276;6.390;2024-03-23T02:47:00;8.10;99.90
20998;DHT22;10657;51.276;6.390;2024-03-23T02:49:27;8.00;99.90
20998;DHT22;10657;51.276;6.390;2024-03-23T02:51:52;8.00;99.90
20998;DHT22;10657;51.276;6.390;2024-03-23T02:54:18;8.10;99.90
20998;DHT22;10657;51.276;6.390;2024-03-23T02:56:44;8.20;99.90
20998;DHT22;10657;51.276;6.390;2024-03-23T02:59:10;8.10;99.90
20998;DHT22;10657;51.276;6.390;2024-03-23T03:01:35;8.20;99.90
20998;DHT22;10657;51.276;6.390;2024-03-23T03:04:01;8.20;99.90
20998;DHT22;10657;51.276;6.390;2024-03-23T03:06:27;8.20;99.90
20998;DHT22;10657;51.276;6.390;2024-03-23T03:08:56;8.30;99.90
20998;DHT22;10657;51.276;6.390;2024-03-23T03:11:22;8.30;99.90
20998;DHT22;10657;51.276;6.390;2024-03-23T03:13:48;8.30;99.90
20998;DHT22;10657;51.276;6.390;2024-03-23T03:16:13;8.00;99.90
20998;DHT22;10657;51.276;6.390;2024-03-23T03:18:39;7.70;99.90
20998;DHT22;10657;51.276;6.390;2024-03-23T03:21:12;7.80;99.90
20998;DHT22;10657;51.276;6.390;2024-03-23T03:23:38;7.80;99.90
20998;DHT22;10657;51.276;6.390;2024-03-23T03:26:04;7.70;99.90
20998;DHT22;10657;51.276;6.390;2024-03-23T03:28:34;7.70;99.90
20998;DHT22;10657;51.276;6.390;2024-03-23T03:31:00;7.50;99.90
20998;DHT22;10657;51.276;6.390;2024-03-23T03:33:27;7.50;99.90
20998;DHT22;10657;51.276;6.390;2024-03-23T03:35:53;7.50;99.90
20998;DHT22;10657;51.276;6.390;2024-03-23T03:38:19;7.50;99.90
20998;DHT22;10657;51.276;6.390;2024-03-23T03:40:45;7.30;99.90
20998;DHT22;10657;51.276;6.390;2024-03-23T03:43:11;7.30;99.90
20998;DHT22;10657;51.276;6.390;2024-03-23T03:45:37;7.20;99.90
20998;DHT22;10657;51.276;6.390;2024-03-23T03:48:03;7.30;99.90
20998;DHT22;10657;51.276;6.390;2024-03-23T03:50:30;7.00;99.90
20998;DHT22;10657;51.276;6.390;2024-03-23T03:52:56;7.00;99.90
20998;DHT22;10657;51.276;6.390;2024-03-23T03:55:22;7.00;99.90
20998;DHT22;10657;51.276;6.390;2024-03-23T03:57:47;6.90;99.90
20998;DHT22;10657;51.276;6.390;2024-03-23T04:00:13;6.80;99.90
20998;DHT22;10657;51.276;6.390;2024-03-23T04:02:39;6.70;99.90
20998;DHT22;10657;51.276;6.390;2024-03-23T04:05:08;6.80;99.90
20998;DHT22;10657;51.276;6.390;2024-03-23T04:07:34;6.70;99.90
20998;DHT22;10657;51.276;6.390;2024-03-23T04:09:59;6.80;99.90
20998;DHT22;10657;51.276;6.390;2024-03-23T04:12:32;6.80;99.90
20998;DHT22;10657;51.276;6.390;2024-03-23T04:14:58;6.70;99.90
20998;DHT22;10657;51.276;6.390;2024-03-23T04:17:24;6.80;99.90
20998;DHT22;10657;51.276;6.390;2024-03-23T04:19:51;6.80;99.90
20998;DHT22;10657;51.276;6.390;2024-03-23T04:22:18;6.80;99.90
20998;DHT22;10657;51.276;6.390;2024-03-23T04:24:43;6.80;99.90
20998;DHT22;10657;51.276;6.390;2024-03-23T04:27:09;6.80;99.90
20998;DHT22;10657;51.276;6.390;2024-03-23T04:29:35;6.70;99.90
20998;DHT22;10657;51.276;6.390;2024-03-23T04:32:01;6.60;99.90
20998;DHT22;10657;51.276;6.390;2024-03-23T04:34:27;6.60;99.90
20998;DHT22;10657;51.276;6.390;2024-03-23T04:36:53;6.80;99.90
20998;DHT22;10657;51.276;6.390;2024-03-23T04:39:19;6.90;99.90
20998;DHT22;10657;51.276;6.390;2024-03-23T04:41:45;7.00;99.90
20998;DHT22;10657;51.276;6.390;2024-03-23T04:44:10;7.00;99.90
20998;DHT22;10657;51.276;6.390;2024-03-23T04:46:36;6.90;99.90
20998;DHT22;10657;51.276;6.390;2024-03-23T04:49:02;6.90;99.90
20998;DHT22;10657;51.276;6.390;2024-03-23T04:51:35;6.90;99.90
20998;DHT22;10657;51.276;6.390;2024-03-23T04:54:04;7.00;99.90
20998;DHT22;10657;51.276;6.390;2024-03-23T04:56:31;6.90;99.90
20998;DHT22;10657;51.276;6.390;2024-03-23T04:58:57;6.80;99.90
20998;DHT22;10657;51.276;6.390;2024-03-23T05:01:27;6.90;99.90
20998;DHT22;10657;51.276;6.390;2024-03-23T05:03:53;6.90;99.90
20998;DHT22;10657;51.276;6.390;2024-03-23T05:06:19;6.80;99.90
20998;DHT22;10657;51.276;6.390;2024-03-23T05:08:45;6.80;99.90
20998;DHT22;10657;51.276;6.390;2024-03-23T05:11:11;6.80;99.90
20998;DHT22;10657;51.276;6.390;2024-03-23T05:13:37;6.80;99.90
20998;DHT22;10657;51.276;6.390;2024-03-23T05:16:03;6.80;99.90
20998;DHT22;10657;51.276;6.390;2024-03-23T05:18:29;6.80;99.90
20998;DHT22;10657;51.276;6.390;2024-03-23T05:20:57;6.80;99.90
20998;DHT22;10657;51.276;6.390;2024-03-23T05:23:28;6.80;99.90
20998;DHT22;10657;51.276;6.390;2024-03-23T05:25:54;6.80;99.90
20998;DHT22;10657;51.276;6.390;2024-03-23T05:28:21;6.60;99.90
20998;DHT22;10657;51.276;6.390;2024-03-23T05:30:53;6.60;99.90
20998;DHT22;10657;51.276;6.390;2024-03-23T05:33:20;6.60;99.90
20998;DHT22;10657;51.276;6.390;2024-03-23T05:35:46;6.50;99.90
20998;DHT22;10657;51.276;6.390;2024-03-23T05:38:16;6.40;99.90
20998;DHT22;10657;51.276;6.390;2024-03-23T05:41:01;6.40;99.90
20998;DHT22;10657;51.276;6.390;2024-03-23T05:43:27;6.40;99.90
20998;DHT22;10657;51.276;6.390;2024-03-23T05:45:58;6.30;99.90
20998;DHT22;10657;51.276;6.390;2024-03-23T05:48:25;6.30;99.90
20998;DHT22;10657;51.276;6.390;2024-03-23T05:50:52;6.30;99.90
20998;DHT22;10657;51.276;6.390;2024-03-23T05:53:19;6.20;99.90
20998;DHT22;10657;51.276;6.390;2024-03-23T05:55:47;6.20;99.90
20998;DHT22;10657;51.276;6.390;2024-03-23T05:58:15;6.10;99.90
20998;DHT22;10657;51.276;6.390;2024-03-23T06:00:43;6.00;99.90
20998;DHT22;10657;51.276;6.390;2024-03-23T06:03:10;6.10;99.90
20998;DHT22;10657;51.276;6.390;2024-03-23T06:05:39;6.10;99.90
20998;DHT22;10657;51.276;6.390;2024-03-23T06:08:05;6.20;99.90
20998;DHT22;10657;51.276;6.390;2024-03-23T06:10:32;6.10;99.90
20998;DHT22;10657;51.276;6.390;2024-03-23T06:12:57;6.20;99.90
20998;DHT22;10657;51.276;6.390;2024-03-23T06:15:24;6.20;99.90
20998;DHT22;10657;51.276;6.390;2024-03-23T06:17:50;6.20;99.90
20998;DHT22;10657;51.276;6.390;2024-03-23T06:20:16;6.20;99.90
20998;DHT22;10657;51.276;6.390;2024-03-23T06:22:42;6.20;99.90
20998;DHT22;10657;51.276;6.390;2024-03-23T06:25:08;6.20;99.90
20998;DHT22;10657;51.276;6.390;2024-03-23T06:27:34;6.20;99.90
20998;DHT22;10657;51.276;6.390;2024-03-23T06:30:00;6.20;99.90
20998;DHT22;10657;51.276;6.390;2024-03-23T06:32:27;6.30;99.90
20998;DHT22;10657;51.276;6.390;2024-03-23T06:34:52;6.30;99.90
20998;DHT22;10657;51.276;6.390;2024-03-23T06:37:18;6.30;99.90
20998;DHT22;10657;51.276;6.390;2024-03-23T06:39:46;6.30;99.90
20998;DHT22;10657;51.276;6.390;2024-03-23T06:42:12;6.40;99.90
20998;DHT22;10657;51.276;6.390;2024-03-23T06:44:38;6.40;99.90
20998;DHT22;10657;51.276;6.390;2024-03-23T06:47:07;6.40;99.90
20998;DHT22;10657;51.276;6.390;2024-03-23T06:49:33;6.40;99.90
20998;DHT22;10657;51.276;6.390;2024-03-23T06:51:59;6.40;99.90
20998;DHT22;10657;51.276;6.390;2024-03-23T06:54:25;6.40;99.90
20998;DHT22;10657;51.276;6.390;2024-03-23T06:56:54;6.40;99.90
20998;DHT22;10657;51.276;6.390;2024-03-23T06:59:20;6.50;99.90
20998;DHT22;10657;51.276;6.390;2024-03-23T07:01:46;6.40;99.90
20998;DHT22;10657;51.276;6.390;2024-03-23T07:04:11;6.50;99.90
20998;DHT22;10657;51.276;6.390;2024-03-23T07:06:44;6.50;99.90
20998;DHT22;10657;51.276;6.390;2024-03-23T07:09:10;6.60;99.90
20998;DHT22;10657;51.276;6.390;2024-03-23T07:11:36;6.50;99.90
20998;DHT22;10657;51.276;6.390;2024-03-23T07:14:02;6.50;99.90
20998;DHT22;10657;51.276;6.390;2024-03-23T07:16:30;6.60;99.90
20998;DHT22;10657;51.276;6.390;2024-03-23T07:18:59;6.60;99.90
20998;DHT22;10657;51.276;6.390;2024-03-23T07:21:25;6.70;99.90
20998;DHT22;10657;51.276;6.390;2024-03-23T07:23:51;6.70;99.90
20998;DHT22;10657;51.276;6.390;2024-03-23T07:26:16;6.80;99.90
20998;DHT22;10657;51.276;6.390;2024-03-23T07:28:43;6.80;99.90
20998;DHT22;10657;51.276;6.390;2024-03-23T07:31:11;6.90;99.90
20998;DHT22;10657;51.276;6.390;2024-03-23T07:33:42;6.90;99.90
20998;DHT22;10657;51.276;6.390;2024-03-23T07:36:08;6.90;99.90
20998;DHT22;10657;51.276;6.390;2024-03-23T07:38:36;6.90;99.90
20998;DHT22;10657;51.276;6.390;2024-03-23T07:41:07;7.00;99.90
20998;DHT22;10657;51.276;6.390;2024-03-23T07:43:35;7.00;99.90
20998;DHT22;10657;51.276;6.390;2024-03-23T07:46:01;7.00;99.90
20998;DHT22;10657;51.276;6.390;2024-03-23T07:48:30;7.10;99.90
20998;DHT22;10657;51.276;6.390;2024-03-23T07:53:33;7.20;99.90
20998;DHT22;10657;51.276;6.390;2024-03-23T07:58:29;7.40;99.90
20998;DHT22;10657;51.276;6.390;2024-03-23T08:00:55;7.50;99.90
20998;DHT22;10657;51.276;6.390;2024-03-23T08:03:24;7.50;99.90
20998;DHT22;10657;51.276;6.390;2024-03-23T08:05:53;7.60;99.90
20998;DHT22;10657;51.276;6.390;2024-03-23T08:08:19;7.60;99.90
20998;DHT22;10657;51.276;6.390;2024-03-23T08:10:49;7.60;99.90
20998;DHT22;10657;51.276;6.390;2024-03-23T08:13:14;7.80;99.90
20998;DHT22;10657;51.276;6.390;2024-03-23T08:15:40;7.80;99.90
20998;DHT22;10657;51.276;6.390;2024-03-23T08:18:06;7.80;99.90
20998;DHT22;10657;51.276;6.390;2024-03-23T08:20:32;7.90;99.90
20998;DHT22;10657;51.276;6.390;2024-03-23T08:22:58;7.90;99.90
20998;DHT22;10657;51.276;6.390;2024-03-23T08:25:24;7.80;99.90
20998;DHT22;10657;51.276;6.390;2024-03-23T08:27:49;7.70;99.90
20998;DHT22;10657;51.276;6.390;2024-03-23T08:30:18;7.70;99.90
20998;DHT22;10657;51.276;6.390;2024-03-23T08:32:44;7.80;99.90
20998;DHT22;10657;51.276;6.390;2024-03-23T08:35:11;7.90;99.90
20998;DHT22;10657;51.276;6.390;2024-03-23T08:37:37;8.00;99.90
20998;DHT22;10657;51.276;6.390;2024-03-23T08:40:03;8.00;99.90
20998;DHT22;10657;51.276;6.390;2024-03-23T08:42:30;8.00;99.90
20998;DHT22;10657;51.276;6.390;2024-03-23T08:44:56;8.00;99.90
20998;DHT22;10657;51.276;6.390;2024-03-23T08:47:22;8.00;99.90
20998;DHT22;10657;51.276;6.390;2024-03-23T08:49:48;8.00;99.90
20998;DHT22;10657;51.276;6.390;2024-03-23T08:52:14;8.00;99.90
20998;DHT22;10657;51.276;6.390;2024-03-23T08:54:39;8.00;99.90
20998;DHT22;10657;51.276;6.390;2024-03-23T08:57:11;8.10;99.90
20998;DHT22;10657;51.276;6.390;2024-03-23T08:59:37;8.00;99.90
20998;DHT22;10657;51.276;6.390;2024-03-23T09:02:03;8.10;99.90
20998;DHT22;10657;51.276;6.390;2024-03-23T09:04:30;8.20;99.90
20998;DHT22;10657;51.276;6.390;2024-03-23T09:06:57;8.20;99.90
20998;DHT22;10657;51.276;6.390;2024-03-23T09:09:24;8.30;99.90
20998;DHT22;10657;51.276;6.390;2024-03-23T09:11:50;8.30;99.90
20998;DHT22;10657;51.276;6.390;2024-03-23T09:14:16;8.30;99.90
20998;DHT22;10657;51.276;6.390;2024-03-23T09:16:41;8.20;99.90
20998;DHT22;10657;51.276;6.390;2024-03-23T09:19:08;8.10;99.90
20998;DHT22;10657;51.276;6.390;2024-03-23T09:21:33;8.10;99.90
20998;DHT22;10657;51.276;6.390;2024-03-23T09:23:59;8.10;99.90
20998;DHT22;10657;51.276;6.390;2024-03-23T09:26:25;8.10;99.90
20998;DHT22;10657;51.276;6.390;2024-03-23T09:28:50;8.10;99.90
20998;DHT22;10657;51.276;6.390;2024-03-23T09:31:17;8.10;99.90
20998;DHT22;10657;51.276;6.390;2024-03-23T09:33:43;8.10;99.90
20998;DHT22;10657;51.276;6.390;2024-03-23T09:36:09;8.20;99.90
20998;DHT22;10657;51.276;6.390;2024-03-23T09:38:35;8.40;99.90
20998;DHT22;10657;51.276;6.390;2024-03-23T09:41:07;8.40;99.90
20998;DHT22;10657;51.276;6.390;2024-03-23T09:43:33;8.40;99.90
20998;DHT22;10657;51.276;6.390;2024-03-23T09:46:00;8.20;99.90
20998;DHT22;10657;51.276;6.390;2024-03-23T09:48:29;8.20;99.90
20998;DHT22;10657;51.276;6.390;2024-03-23T09:50:55;8.20;99.90
20998;DHT22;10657;51.276;6.390;2024-03-23T09:53:21;8.00;99.90
20998;DHT22;10657;51.276;6.390;2024-03-23T09:55:48;7.50;99.90
20998;DHT22;10657;51.276;6.390;2024-03-23T09:58:16;6.10;99.90
20998;DHT22;10657;51.276;6.390;2024-03-23T10:00:42;5.60;99.90
20998;DHT22;10657;51.276;6.390;2024-03-23T10:03:08;5.50;99.90
20998;DHT22;10657;51.276;6.390;2024-03-23T10:05:37;5.50;99.90
20998;DHT22;10657;51.276;6.390;2024-03-23T10:10:47;5.70;99.90
20998;DHT22;10657;51.276;6.390;2024-03-23T10:13:28;5.80;99.90
20998;DHT22;10657;51.276;6.390;2024-03-23T10:15:58;5.90;99.90
20998;DHT22;10657;51.276;6.390;2024-03-23T10:18:24;6.00;99.90
20998;DHT22;10657;51.276;6.390;2024-03-23T10:21:06;5.90;99.90
20998;DHT22;10657;51.276;6.390;2024-03-23T10:23:39;5.80;99.90
20998;DHT22;10657;51.276;6.390;2024-03-23T10:26:24;5.30;99.90
20998;DHT22;10657;51.276;6.390;2024-03-23T10:29:02;5.20;99.90
20998;DHT22;10657;51.276;6.390;2024-03-23T10:31:31;5.20;99.90
20998;DHT22;10657;51.276;6.390;2024-03-23T10:33:57;5.20;99.90
20998;DHT22;10657;51.276;6.390;2024-03-23T10:36:24;5.30;99.90
20998;DHT22;10657;51.276;6.390;2024-03-23T10:38:51;5.40;99.90
20998;DHT22;10657;51.276;6.390;2024-03-23T10:41:18;5.60;99.90
20998;DHT22;10657;51.276;6.390;2024-03-23T10:43:48;5.60;99.90
20998;DHT22;10657;51.276;6.390;2024-03-23T10:46:15;5.80;99.90
20998;DHT22;10657;51.276;6.390;2024-03-23T10:48:41;5.90;99.90
20998;DHT22;10657;51.276;6.390;2024-03-23T10:51:10;6.00;99.90
20998;DHT22;10657;51.276;6.390;2024-03-23T10:53:36;6.10;99.90
20998;DHT22;10657;51.276;6.390;2024-03-23T10:56:05;6.20;99.90
20998;DHT22;10657;51.276;6.390;2024-03-23T10:58:41;6.20;99.90
20998;DHT22;10657;51.276;6.390;2024-03-23T11:01:11;6.30;99.90
20998;DHT22;10657;51.276;6.390;2024-03-23T11:03:39;6.40;99.90
20998;DHT22;10657;51.276;6.390;2024-03-23T11:06:09;6.50;99.90
20998;DHT22;10657;51.276;6.390;2024-03-23T11:08:44;6.60;99.90
20998;DHT22;10657;51.276;6.390;2024-03-23T11:11:21;6.80;99.90
20998;DHT22;10657;51.276;6.390;2024-03-23T11:13:53;7.00;99.90
20998;DHT22;10657;51.276;6.390;2024-03-23T11:16:24;7.20;99.90
20998;DHT22;10657;51.276;6.390;2024-03-23T11:18:51;7.40;99.90
20998;DHT22;10657;51.276;6.390;2024-03-23T11:24:17;7.70;99.90
20998;DHT22;10657;51.276;6.390;2024-03-23T11:26:44;7.60;99.90
20998;DHT22;10657;51.276;6.390;2024-03-23T11:29:11;6.30;99.90
20998;DHT22;10657;51.276;6.390;2024-03-23T11:31:37;5.80;99.90
20998;DHT22;10657;51.276;6.390;2024-03-23T11:34:06;5.60;99.90
20998;DHT22;10657;51.276;6.390;2024-03-23T11:36:35;5.50;99.90
20998;DHT22;10657;51.276;6.390;2024-03-23T11:39:15;5.80;99.90
20998;DHT22;10657;51.276;6.390;2024-03-23T11:41:56;6.00;99.90
20998;DHT22;10657;51.276;6.390;2024-03-23T11:44:23;6.10;99.90
20998;DHT22;10657;51.276;6.390;2024-03-23T11:46:50;6.20;99.90
20998;DHT22;10657;51.276;6.390;2024-03-23T11:49:21;6.30;99.90
20998;DHT22;10657;51.276;6.390;2024-03-23T11:51:50;6.30;99.90
20998;DHT22;10657;51.276;6.390;2024-03-23T11:54:25;6.50;99.90
20998;DHT22;10657;51.276;6.390;2024-03-23T11:56:56;6.80;99.90
20998;DHT22;10657;51.276;6.390;2024-03-23T11:59:39;7.10;99.90
20998;DHT22;10657;51.276;6.390;2024-03-23T12:02:11;7.40;99.90
20998;DHT22;10657;51.276;6.390;2024-03-23T12:04:37;7.60;99.90
20998;DHT22;10657;51.276;6.390;2024-03-23T12:09:36;7.40;99.90
20998;DHT22;10657;51.276;6.390;2024-03-23T12:12:10;7.20;99.90
20998;DHT22;10657;51.276;6.390;2024-03-23T12:14:39;7.20;99.90
20998;DHT22;10657;51.276;6.390;2024-03-23T12:17:13;7.30;99.90
20998;DHT22;10657;51.276;6.390;2024-03-23T12:19:45;7.50;99.90
20998;DHT22;10657;51.276;6.390;2024-03-23T12:22:15;7.30;99.90
20998;DHT22;10657;51.276;6.390;2024-03-23T12:24:40;7.10;99.90
20998;DHT22;10657;51.276;6.390;2024-03-23T12:27:10;7.00;99.90
20998;DHT22;10657;51.276;6.390;2024-03-23T12:29:36;7.00;99.90
20998;DHT22;10657;51.276;6.390;2024-03-23T12:32:04;7.30;99.90
20998;DHT22;10657;51.276;6.390;2024-03-23T12:34:31;7.50;99.90
20998;DHT22;10657;51.276;6.390;2024-03-23T12:36:57;7.80;99.90
20998;DHT22;10657;51.276;6.390;2024-03-23T12:39:22;7.90;99.90
20998;DHT22;10657;51.276;6.390;2024-03-23T12:41:49;7.70;99.90
20998;DHT22;10657;51.276;6.390;2024-03-23T12:44:15;7.60;99.90
20998;DHT22;10657;51.276;6.390;2024-03-23T12:46:44;7.50;99.90
20998;DHT22;10657;51.276;6.390;2024-03-23T12:49:11;6.90;99.90
20998;DHT22;10657;51.276;6.390;2024-03-23T12:51:37;6.30;99.90
20998;DHT22;10657;51.276;6.390;2024-03-23T12:54:03;5.90;99.90
20998;DHT22;10657;51.276;6.390;2024-03-23T12:56:29;5.70;99.90
20998;DHT22;10657;51.276;6.390;2024-03-23T12:58:55;5.60;99.90
20998;DHT22;10657;51.276;6.390;2024-03-23T13:01:26;5.70;99.90
20998;DHT22;10657;51.276;6.390;2024-03-23T13:03:52;5.80;99.90
20998;DHT22;10657;51.276;6.390;2024-03-23T13:06:18;6.00;99.90
20998;DHT22;10657;51.276;6.390;2024-03-23T13:08:48;6.10;99.90
20998;DHT22;10657;51.276;6.390;2024-03-23T13:11:15;6.60;99.90
20998;DHT22;10657;51.276;6.390;2024-03-23T13:13:45;7.00;99.90
20998;DHT22;10657;51.276;6.390;2024-03-23T13:16:11;7.30;99.90
20998;DHT22;10657;51.276;6.390;2024-03-23T13:18:36;7.50;99.90
20998;DHT22;10657;51.276;6.390;2024-03-23T13:21:07;7.70;99.90
20998;DHT22;10657;51.276;6.390;2024-03-23T13:23:35;7.90;99.90
20998;DHT22;10657;51.276;6.390;2024-03-23T13:26:01;7.50;99.90
20998;DHT22;10657;51.276;6.390;2024-03-23T13:28:27;7.40;99.90
20998;DHT22;10657;51.276;6.390;2024-03-23T13:30:53;7.40;99.90
20998;DHT22;10657;51.276;6.390;2024-03-23T13:33:22;7.70;99.90
20998;DHT22;10657;51.276;6.390;2024-03-23T13:35:50;7.60;99.90
20998;DHT22;10657;51.276;6.390;2024-03-23T13:38:15;7.80;99.90
20998;DHT22;10657;51.276;6.390;2024-03-23T13:40:50;7.90;99.90
20998;DHT22;10657;51.276;6.390;2024-03-23T13:43:16;8.20;99.90
20998;DHT22;10657;51.276;6.390;2024-03-23T13:45:42;8.40;99.90
20998;DHT22;10657;51.276;6.390;2024-03-23T13:48:07;8.70;99.90
20998;DHT22;10657;51.276;6.390;2024-03-23T13:50:33;8.70;99.90
20998;DHT22;10657;51.276;6.390;2024-03-23T13:53:00;8.90;99.90
20998;DHT22;10657;51.276;6.390;2024-03-23T13:55:26;9.10;99.90
20998;DHT22;10657;51.276;6.390;2024-03-23T13:57:51;8.70;99.90
20998;DHT22;10657;51.276;6.390;2024-03-23T14:00:17;8.30;99.90
20998;DHT22;10657;51.276;6.390;2024-03-23T14:02:44;8.00;99.90
20998;DHT22;10657;51.276;6.390;2024-03-23T14:05:10;8.00;99.90
20998;DHT22;10657;51.276;6.390;2024-03-23T14:07:37;8.00;99.90
20998;DHT22;10657;51.276;6.390;2024-03-23T14:10:03;7.70;99.90
20998;DHT22;10657;51.276;6.390;2024-03-23T14:12:32;7.50;99.90
20998;DHT22;10657;51.276;6.390;2024-03-23T14:15:00;7.30;99.90
20998;DHT22;10657;51.276;6.390;2024-03-23T14:17:31;7.30;99.90
20998;DHT22;10657;51.276;6.390;2024-03-23T14:19:57;7.20;99.90
20998;DHT22;10657;51.276;6.390;2024-03-23T14:22:27;7.20;99.90
20998;DHT22;10657;51.276;6.390;2024-03-23T14:24:53;7.40;99.90
20998;DHT22;10657;51.276;6.390;2024-03-23T14:27:19;8.00;99.90
20998;DHT22;10657;51.276;6.390;2024-03-23T14:29:47;8.70;99.90
20998;DHT22;10657;51.276;6.390;2024-03-23T14:32:13;9.10;99.90
20998;DHT22;10657;51.276;6.390;2024-03-23T14:34:40;8.80;99.90
20998;DHT22;10657;51.276;6.390;2024-03-23T14:37:06;8.90;99.90
20998;DHT22;10657;51.276;6.390;2024-03-23T14:39:33;9.00;99.90
20998;DHT22;10657;51.276;6.390;2024-03-23T14:42:01;9.20;99.90
20998;DHT22;10657;51.276;6.390;2024-03-23T14:44:30;9.30;99.90
20998;DHT22;10657;51.276;6.390;2024-03-23T14:46:56;9.30;99.90
20998;DHT22;10657;51.276;6.390;2024-03-23T14:49:22;9.30;99.90
20998;DHT22;10657;51.276;6.390;2024-03-23T14:51:51;9.50;99.90
20998;DHT22;10657;51.276;6.390;2024-03-23T14:54:17;9.30;99.90
20998;DHT22;10657;51.276;6.390;2024-03-23T14:56:45;8.90;99.90
20998;DHT22;10657;51.276;6.390;2024-03-23T14:59:13;8.60;99.90
20998;DHT22;10657;51.276;6.390;2024-03-23T15:01:38;8.50;99.90
20998;DHT22;10657;51.276;6.390;2024-03-23T15:04:04;8.50;99.90
20998;DHT22;10657;51.276;6.390;2024-03-23T15:06:30;8.50;99.90
20998;DHT22;10657;51.276;6.390;2024-03-23T15:08:56;8.30;99.90
20998;DHT22;10657;51.276;6.390;2024-03-23T15:11:22;8.10;99.90
20998;DHT22;10657;51.276;6.390;2024-03-23T15:13:50;8.10;99.90
20998;DHT22;10657;51.276;6.390;2024-03-23T15:16:19;8.00;99.90
20998;DHT22;10657;51.276;6.390;2024-03-23T15:18:46;7.90;99.90
20998;DHT22;10657;51.276;6.390;2024-03-23T15:21:12;7.70;99.90
20998;DHT22;10657;51.276;6.390;2024-03-23T15:23:37;7.90;99.90
20998;DHT22;10657;51.276;6.390;2024-03-23T15:26:04;7.80;99.90
20998;DHT22;10657;51.276;6.390;2024-03-23T15:28:31;7.70;99.90
20998;DHT22;10657;51.276;6.390;2024-03-23T15:31:05;7.80;99.90
20998;DHT22;10657;51.276;6.390;2024-03-23T15:33:30;7.70;99.90
20998;DHT22;10657;51.276;6.390;2024-03-23T15:36:00;7.60;99.90
20998;DHT22;10657;51.276;6.390;2024-03-23T15:38:26;7.50;99.90
20998;DHT22;10657;51.276;6.390;2024-03-23T15:40:55;7.40;99.90
20998;DHT22;10657;51.276;6.390;2024-03-23T15:43:21;7.40;99.90
20998;DHT22;10657;51.276;6.390;2024-03-23T15:46:00;7.30;99.90
20998;DHT22;10657;51.276;6.390;2024-03-23T15:48:26;7.40;99.90
20998;DHT22;10657;51.276;6.390;2024-03-23T15:50:57;7.30;99.90
20998;DHT22;10657;51.276;6.390;2024-03-23T15:53:24;7.30;99.90
20998;DHT22;10657;51.276;6.390;2024-03-23T15:56:02;7.30;99.90
20998;DHT22;10657;51.276;6.390;2024-03-23T15:58:29;7.50;99.90
20998;DHT22;10657;51.276;6.390;2024-03-23T16:00:56;7.40;99.90
20998;DHT22;10657;51.276;6.390;2024-03-23T16:03:24;7.40;99.90
20998;DHT22;10657;51.276;6.390;2024-03-23T16:06:02;7.60;99.90
20998;DHT22;10657;51.276;6.390;2024-03-23T16:08:29;8.20;99.90
20998;DHT22;10657;51.276;6.390;2024-03-23T16:11:00;8.70;99.90
20998;DHT22;10657;51.276;6.390;2024-03-23T16:13:26;9.10;99.90
20998;DHT22;10657;51.276;6.390;2024-03-23T16:16:00;9.30;99.90
20998;DHT22;10657;51.276;6.390;2024-03-23T16:18:26;9.40;99.90
20998;DHT22;10657;51.276;6.390;2024-03-23T16:20:59;9.50;99.90
20998;DHT22;10657;51.276;6.390;2024-03-23T16:23:26;9.50;99.90
20998;DHT22;10657;51.276;6.390;2024-03-23T16:25:54;9.60;99.90
20998;DHT22;10657;51.276;6.390;2024-03-23T16:28:27;9.50;99.90
20998;DHT22;10657;51.276;6.390;2024-03-23T16:31:07;9.60;99.90
20998;DHT22;10657;51.276;6.390;2024-03-23T16:33:33;9.70;99.90
20998;DHT22;10657;51.276;6.390;2024-03-23T16:36:01;9.70;99.90
20998;DHT22;10657;51.276;6.390;2024-03-23T16:38:28;9.60;99.90
20998;DHT22;10657;51.276;6.390;2024-03-23T16:40:59;9.80;99.90
20998;DHT22;10657;51.276;6.390;2024-03-23T16:43:26;9.10;99.90
20998;DHT22;10657;51.276;6.390;2024-03-23T16:46:04;8.70;99.90
20998;DHT22;10657;51.276;6.390;2024-03-23T16:48:31;8.30;99.90
20998;DHT22;10657;51.276;6.390;2024-03-23T16:51:01;8.30;99.90